sensor_id;sensor_type;location;lat;lon;timestamp;P1;durP1;ratioP1;P2;durP2;ratioP2
4001;SDS011;2015;48.670;9.060;2023-08-06T00:01:11;4.73;;;4.43;;
4001;SDS011;2015;48.670;9.060;2023-08-06T00:03:43;5.47;;;4.03;;
4001;SDS011;2015;48.670;9.060;2023-08-06T00:06:14;5.77;;;4.30;;
4001;SDS011;2015;48.670;9.060;2023-08-06T00:08:46;4.67;;;4.37;;
4001;SDS011;2015;48.670;9.060;2023-08-06T00:11:18;4.40;;;4.10;;
4001;SDS011;2015;48.670;9.060;2023-08-06T00:13:50;7.17;;;4.60;;
4001;SDS011;2015;48.670;9.060;2023-08-06T00:16:21;4.67;;;4.30;;
4001;SDS011;2015;48.670;9.060;2023-08-06T00:18:53;5.93;;;5.40;;
4001;SDS011;2015;48.670;9.060;2023-08-06T00:21:25;5.03;;;4.57;;
4001;SDS011;2015;48.670;9.060;2023-08-06T00:23:57;5.20;;;4.90;;
4001;SDS011;2015;48.670;9.060;2023-08-06T00:26:29;4.87;;;4.47;;
4001;SDS011;2015;48.670;9.060;2023-08-06T00:29:00;4.57;;;4.27;;
4001;SDS011;2015;48.670;9.060;2023-08-06T00:31:32;8.73;;;4.57;;
4001;SDS011;2015;48.670;9.060;2023-08-06T00:34:04;5.53;;;5.13;;
4001;SDS011;2015;48.670;9.060;2023-08-06T00:36:35;5.43;;;5.13;;
4001;SDS011;2015;48.670;9.060;2023-08-06T00:39:07;5.23;;;4.93;;
4001;SDS011;2015;48.670;9.060;2023-08-06T00:41:39;14.10;;;6.03;;
4001;SDS011;2015;48.670;9.060;2023-08-06T00:44:11;5.63;;;5.23;;
4001;SDS011;2015;48.670;9.060;2023-08-06T00:46:42;5.97;;;5.40;;
4001;SDS011;2015;48.670;9.060;2023-08-06T00:49:14;5.30;;;4.90;;
4001;SDS011;2015;48.670;9.060;2023-08-06T00:51:46;5.70;;;5.13;;
4001;SDS011;2015;48.670;9.060;2023-08-06T00:54:18;5.50;;;5.10;;
4001;SDS011;2015;48.670;9.060;2023-08-06T00:56:50;4.80;;;4.50;;
4001;SDS011;2015;48.670;9.060;2023-08-06T00:59:31;5.83;;;5.40;;
4001;SDS011;2015;48.670;9.060;2023-08-06T01:02:03;4.87;;;4.40;;
4001;SDS011;2015;48.670;9.060;2023-08-06T01:04:36;5.50;;;5.10;;
4001;SDS011;2015;48.670;9.060;2023-08-06T01:10:00;4.93;;;4.63;;
4001;SDS011;2015;48.670;9.060;2023-08-06T01:12:51;6.57;;;6.07;;
4001;SDS011;2015;48.670;9.060;2023-08-06T01:15:41;6.57;;;5.63;;
4001;SDS011;2015;48.670;9.060;2023-08-06T01:18:17;5.40;;;4.90;;
4001;SDS011;2015;48.670;9.060;2023-08-06T01:20:49;5.80;;;5.30;;
4001;SDS011;2015;48.670;9.060;2023-08-06T01:23:23;5.97;;;5.43;;
4001;SDS011;2015;48.670;9.060;2023-08-06T01:26:10;5.05;;;4.65;;
4001;SDS011;2015;48.670;9.060;2023-08-06T01:29:10;5.43;;;5.03;;
4001;SDS011;2015;48.670;9.060;2023-08-06T01:31:48;6.27;;;5.77;;
4001;SDS011;2015;48.670;9.060;2023-08-06T01:34:23;8.53;;;6.00;;
4001;SDS011;2015;48.670;9.060;2023-08-06T01:36:56;5.83;;;5.47;;
4001;SDS011;2015;48.670;9.060;2023-08-06T01:39:29;5.20;;;4.90;;
4001;SDS011;2015;48.670;9.060;2023-08-06T01:42:02;6.00;;;5.50;;
4001;SDS011;2015;48.670;9.060;2023-08-06T01:44:34;4.80;;;4.50;;
4001;SDS011;2015;48.670;9.060;2023-08-06T01:47:06;5.23;;;4.70;;
4001;SDS011;2015;48.670;9.060;2023-08-06T01:49:38;5.77;;;5.37;;
4001;SDS011;2015;48.670;9.060;2023-08-06T01:52:09;9.13;;;5.70;;
4001;SDS011;2015;48.670;9.060;2023-08-06T01:54:41;5.13;;;4.83;;
4001;SDS011;2015;48.670;9.060;2023-08-06T01:57:13;5.80;;;5.30;;
4001;SDS011;2015;48.670;9.060;2023-08-06T01:59:44;5.70;;;5.37;;
4001;SDS011;2015;48.670;9.060;2023-08-06T02:02:16;6.40;;;6.00;;
4001;SDS011;2015;48.670;9.060;2023-08-06T02:04:48;6.53;;;5.40;;
4001;SDS011;2015;48.670;9.060;2023-08-06T02:07:20;7.57;;;4.80;;
4001;SDS011;2015;48.670;9.060;2023-08-06T02:09:51;5.33;;;5.03;;
4001;SDS011;2015;48.670;9.060;2023-08-06T02:12:23;5.30;;;4.93;;
4001;SDS011;2015;48.670;9.060;2023-08-06T02:14:55;6.30;;;5.87;;
4001;SDS011;2015;48.670;9.060;2023-08-06T02:17:27;5.60;;;5.03;;
4001;SDS011;2015;48.670;9.060;2023-08-06T02:19:58;6.50;;;6.10;;
4001;SDS011;2015;48.670;9.060;2023-08-06T02:22:30;5.20;;;4.80;;
4001;SDS011;2015;48.670;9.060;2023-08-06T02:25:02;5.80;;;5.33;;
4001;SDS011;2015;48.670;9.060;2023-08-06T02:27:34;6.03;;;5.60;;
4001;SDS011;2015;48.670;9.060;2023-08-06T02:30:06;5.70;;;5.20;;
4001;SDS011;2015;48.670;9.060;2023-08-06T02:32:38;10.63;;;5.57;;
4001;SDS011;2015;48.670;9.060;2023-08-06T02:35:09;6.10;;;5.70;;
4001;SDS011;2015;48.670;9.060;2023-08-06T02:37:41;8.30;;;6.00;;
4001;SDS011;2015;48.670;9.060;2023-08-06T02:40:13;5.73;;;5.23;;
4001;SDS011;2015;48.670;9.060;2023-08-06T02:42:45;5.20;;;4.50;;
4001;SDS011;2015;48.670;9.060;2023-08-06T02:45:16;5.25;;;4.82;;
4001;SDS011;2015;48.670;9.060;2023-08-06T02:47:48;6.00;;;4.70;;
4001;SDS011;2015;48.670;9.060;2023-08-06T02:50:22;6.00;;;5.57;;
4001;SDS011;2015;48.670;9.060;2023-08-06T02:52:55;7.60;;;5.30;;
4001;SDS011;2015;48.670;9.060;2023-08-06T02:55:27;5.73;;;5.30;;
4001;SDS011;2015;48.670;9.060;2023-08-06T02:57:58;5.13;;;4.73;;
4001;SDS011;2015;48.670;9.060;2023-08-06T03:00:31;5.10;;;4.77;;
4001;SDS011;2015;48.670;9.060;2023-08-06T03:03:02;5.00;;;4.50;;
4001;SDS011;2015;48.670;9.060;2023-08-06T03:05:34;5.10;;;4.80;;
4001;SDS011;2015;48.670;9.060;2023-08-06T03:08:06;3.70;;;3.50;;
4001;SDS011;2015;48.670;9.060;2023-08-06T03:10:38;3.93;;;3.67;;
4001;SDS011;2015;48.670;9.060;2023-08-06T03:13:13;5.00;;;3.50;;
4001;SDS011;2015;48.670;9.060;2023-08-06T03:15:51;4.00;;;3.70;;
4001;SDS011;2015;48.670;9.060;2023-08-06T03:18:25;4.30;;;4.00;;
4001;SDS011;2015;48.670;9.060;2023-08-06T03:20:59;4.03;;;3.63;;
4001;SDS011;2015;48.670;9.060;2023-08-06T03:23:31;4.13;;;3.73;;
4001;SDS011;2015;48.670;9.060;2023-08-06T03:26:03;3.77;;;3.57;;
4001;SDS011;2015;48.670;9.060;2023-08-06T03:28:34;3.70;;;3.40;;
4001;SDS011;2015;48.670;9.060;2023-08-06T03:31:06;4.90;;;3.67;;
4001;SDS011;2015;48.670;9.060;2023-08-06T03:33:38;3.95;;;3.30;;
4001;SDS011;2015;48.670;9.060;2023-08-06T03:36:10;3.80;;;3.30;;
4001;SDS011;2015;48.670;9.060;2023-08-06T03:38:42;3.60;;;3.30;;
4001;SDS011;2015;48.670;9.060;2023-08-06T03:41:13;4.57;;;3.97;;
4001;SDS011;2015;48.670;9.060;2023-08-06T03:43:45;3.80;;;3.60;;
4001;SDS011;2015;48.670;9.060;2023-08-06T03:46:17;4.10;;;3.37;;
4001;SDS011;2015;48.670;9.060;2023-08-06T03:48:49;16.47;;;3.90;;
4001;SDS011;2015;48.670;9.060;2023-08-06T03:51:20;4.60;;;3.80;;
4001;SDS011;2015;48.670;9.060;2023-08-06T03:53:52;3.17;;;2.97;;
4001;SDS011;2015;48.670;9.060;2023-08-06T03:56:24;3.67;;;3.37;;
4001;SDS011;2015;48.670;9.060;2023-08-06T03:58:56;3.10;;;2.90;;
4001;SDS011;2015;48.670;9.060;2023-08-06T04:01:27;3.30;;;3.10;;
4001;SDS011;2015;48.670;9.060;2023-08-06T04:03:59;4.33;;;4.03;;
4001;SDS011;2015;48.670;9.060;2023-08-06T04:06:31;3.50;;;2.90;;
4001;SDS011;2015;48.670;9.060;2023-08-06T04:09:03;3.50;;;3.13;;
4001;SDS011;2015;48.670;9.060;2023-08-06T04:11:35;3.70;;;3.40;;
4001;SDS011;2015;48.670;9.060;2023-08-06T04:14:06;2.97;;;2.77;;
4001;SDS011;2015;48.670;9.060;2023-08-06T04:16:38;3.63;;;3.30;;
4001;SDS011;2015;48.670;9.060;2023-08-06T04:19:10;3.37;;;3.17;;
4001;SDS011;2015;48.670;9.060;2023-08-06T04:21:42;4.17;;;3.70;;
4001;SDS011;2015;48.670;9.060;2023-08-06T04:24:13;3.40;;;3.20;;
4001;SDS011;2015;48.670;9.060;2023-08-06T04:26:45;5.50;;;3.07;;
4001;SDS011;2015;48.670;9.060;2023-08-06T04:29:17;4.90;;;4.40;;
4001;SDS011;2015;48.670;9.060;2023-08-06T04:31:49;4.70;;;4.20;;
4001;SDS011;2015;48.670;9.060;2023-08-06T04:34:21;3.10;;;2.83;;
4001;SDS011;2015;48.670;9.060;2023-08-06T04:36:52;3.13;;;2.90;;
4001;SDS011;2015;48.670;9.060;2023-08-06T04:39:24;3.78;;;2.40;;
4001;SDS011;2015;48.670;9.060;2023-08-06T04:41:56;3.30;;;2.70;;
4001;SDS011;2015;48.670;9.060;2023-08-06T04:44:31;4.37;;;3.17;;
4001;SDS011;2015;48.670;9.060;2023-08-06T04:47:03;2.90;;;2.70;;
4001;SDS011;2015;48.670;9.060;2023-08-06T04:49:35;3.13;;;2.83;;
4001;SDS011;2015;48.670;9.060;2023-08-06T04:52:06;3.27;;;2.97;;
4001;SDS011;2015;48.670;9.060;2023-08-06T04:54:38;3.30;;;3.10;;
4001;SDS011;2015;48.670;9.060;2023-08-06T04:57:10;4.03;;;3.13;;
4001;SDS011;2015;48.670;9.060;2023-08-06T04:59:42;4.87;;;3.00;;
4001;SDS011;2015;48.670;9.060;2023-08-06T05:02:13;2.87;;;2.43;;
4001;SDS011;2015;48.670;9.060;2023-08-06T05:04:45;2.47;;;2.00;;
4001;SDS011;2015;48.670;9.060;2023-08-06T05:07:17;2.27;;;2.03;;
4001;SDS011;2015;48.670;9.060;2023-08-06T05:09:49;4.00;;;2.30;;
4001;SDS011;2015;48.670;9.060;2023-08-06T05:12:21;1.83;;;1.65;;
4001;SDS011;2015;48.670;9.060;2023-08-06T05:14:53;3.40;;;2.20;;
4001;SDS011;2015;48.670;9.060;2023-08-06T05:17:25;2.70;;;2.17;;
4001;SDS011;2015;48.670;9.060;2023-08-06T05:19:56;2.17;;;1.97;;
4001;SDS011;2015;48.670;9.060;2023-08-06T05:22:28;3.43;;;2.50;;
4001;SDS011;2015;48.670;9.060;2023-08-06T05:25:00;2.17;;;2.03;;
4001;SDS011;2015;48.670;9.060;2023-08-06T05:27:32;2.60;;;1.60;;
4001;SDS011;2015;48.670;9.060;2023-08-06T05:30:04;2.50;;;2.10;;
4001;SDS011;2015;48.670;9.060;2023-08-06T05:32:36;1.77;;;1.67;;
4001;SDS011;2015;48.670;9.060;2023-08-06T05:35:08;1.90;;;1.80;;
4001;SDS011;2015;48.670;9.060;2023-08-06T05:37:40;2.37;;;2.20;;
4001;SDS011;2015;48.670;9.060;2023-08-06T05:40:11;2.87;;;2.60;;
4001;SDS011;2015;48.670;9.060;2023-08-06T05:42:43;1.70;;;1.60;;
4001;SDS011;2015;48.670;9.060;2023-08-06T05:45:15;1.90;;;1.70;;
4001;SDS011;2015;48.670;9.060;2023-08-06T05:47:47;2.40;;;1.63;;
4001;SDS011;2015;48.670;9.060;2023-08-06T05:50:19;2.17;;;2.07;;
4001;SDS011;2015;48.670;9.060;2023-08-06T05:52:51;1.97;;;1.73;;
4001;SDS011;2015;48.670;9.060;2023-08-06T05:55:23;2.17;;;1.90;;
4001;SDS011;2015;48.670;9.060;2023-08-06T05:57:55;2.70;;;1.57;;
4001;SDS011;2015;48.670;9.060;2023-08-06T06:00:27;2.17;;;1.97;;
4001;SDS011;2015;48.670;9.060;2023-08-06T06:02:58;1.73;;;1.63;;
4001;SDS011;2015;48.670;9.060;2023-08-06T06:05:30;1.63;;;1.53;;
4001;SDS011;2015;48.670;9.060;2023-08-06T06:08:02;2.40;;;1.53;;
4001;SDS011;2015;48.670;9.060;2023-08-06T06:10:34;2.03;;;1.37;;
4001;SDS011;2015;48.670;9.060;2023-08-06T06:13:06;1.50;;;1.27;;
4001;SDS011;2015;48.670;9.060;2023-08-06T06:15:40;2.50;;;1.70;;
4001;SDS011;2015;48.670;9.060;2023-08-06T06:18:13;2.20;;;1.67;;
4001;SDS011;2015;48.670;9.060;2023-08-06T06:20:44;1.80;;;1.70;;
4001;SDS011;2015;48.670;9.060;2023-08-06T06:23:16;1.80;;;1.70;;
4001;SDS011;2015;48.670;9.060;2023-08-06T06:25:48;2.33;;;2.23;;
4001;SDS011;2015;48.670;9.060;2023-08-06T06:28:22;1.63;;;1.43;;
4001;SDS011;2015;48.670;9.060;2023-08-06T06:30:59;2.00;;;1.80;;
4001;SDS011;2015;48.670;9.060;2023-08-06T06:33:32;1.97;;;1.63;;
4001;SDS011;2015;48.670;9.060;2023-08-06T06:36:04;4.13;;;1.37;;
4001;SDS011;2015;48.670;9.060;2023-08-06T06:38:36;1.57;;;1.37;;
4001;SDS011;2015;48.670;9.060;2023-08-06T06:41:08;1.70;;;1.60;;
4001;SDS011;2015;48.670;9.060;2023-08-06T06:43:39;1.70;;;1.60;;
4001;SDS011;2015;48.670;9.060;2023-08-06T06:46:11;4.00;;;2.13;;
4001;SDS011;2015;48.670;9.060;2023-08-06T06:48:43;1.30;;;1.20;;
4001;SDS011;2015;48.670;9.060;2023-08-06T06:51:15;6.33;;;2.17;;
4001;SDS011;2015;48.670;9.060;2023-08-06T06:53:46;1.80;;;1.70;;
4001;SDS011;2015;48.670;9.060;2023-08-06T06:56:18;3.43;;;1.70;;
4001;SDS011;2015;48.670;9.060;2023-08-06T06:58:50;1.50;;;1.40;;
4001;SDS011;2015;48.670;9.060;2023-08-06T07:01:22;1.60;;;1.50;;
4001;SDS011;2015;48.670;9.060;2023-08-06T07:03:54;3.00;;;1.57;;
4001;SDS011;2015;48.670;9.060;2023-08-06T07:06:26;1.57;;;1.47;;
4001;SDS011;2015;48.670;9.060;2023-08-06T07:08:57;2.90;;;2.70;;
4001;SDS011;2015;48.670;9.060;2023-08-06T07:11:29;1.40;;;1.30;;
4001;SDS011;2015;48.670;9.060;2023-08-06T07:14:01;2.10;;;1.60;;
4001;SDS011;2015;48.670;9.060;2023-08-06T07:16:33;1.53;;;1.37;;
4001;SDS011;2015;48.670;9.060;2023-08-06T07:19:05;6.33;;;2.57;;
4001;SDS011;2015;48.670;9.060;2023-08-06T07:21:38;1.40;;;1.30;;
4001;SDS011;2015;48.670;9.060;2023-08-06T07:24:10;1.50;;;1.10;;
4001;SDS011;2015;48.670;9.060;2023-08-06T07:26:42;1.73;;;1.33;;
4001;SDS011;2015;48.670;9.060;2023-08-06T07:29:14;1.00;;;0.90;;
4001;SDS011;2015;48.670;9.060;2023-08-06T07:31:50;1.97;;;1.00;;
4001;SDS011;2015;48.670;9.060;2023-08-06T07:34:23;2.20;;;1.10;;
4001;SDS011;2015;48.670;9.060;2023-08-06T07:36:54;1.23;;;1.13;;
4001;SDS011;2015;48.670;9.060;2023-08-06T07:39:26;4.03;;;1.10;;
4001;SDS011;2015;48.670;9.060;2023-08-06T07:41:59;0.80;;;0.80;;
4001;SDS011;2015;48.670;9.060;2023-08-06T07:44:33;1.00;;;0.90;;
4001;SDS011;2015;48.670;9.060;2023-08-06T07:47:05;1.10;;;1.00;;
4001;SDS011;2015;48.670;9.060;2023-08-06T07:49:37;1.10;;;0.90;;
4001;SDS011;2015;48.670;9.060;2023-08-06T07:52:08;1.27;;;1.17;;
4001;SDS011;2015;48.670;9.060;2023-08-06T07:54:40;0.90;;;0.80;;
4001;SDS011;2015;48.670;9.060;2023-08-06T07:57:12;1.27;;;1.17;;
4001;SDS011;2015;48.670;9.060;2023-08-06T07:59:45;1.00;;;0.90;;
4001;SDS011;2015;48.670;9.060;2023-08-06T08:02:16;1.90;;;0.80;;
4001;SDS011;2015;48.670;9.060;2023-08-06T08:04:48;1.00;;;0.80;;
4001;SDS011;2015;48.670;9.060;2023-08-06T08:07:20;0.90;;;0.60;;
4001;SDS011;2015;48.670;9.060;2023-08-06T08:09:52;1.20;;;0.87;;
4001;SDS011;2015;48.670;9.060;2023-08-06T08:12:26;1.03;;;0.93;;
4001;SDS011;2015;48.670;9.060;2023-08-06T08:14:58;1.50;;;0.70;;
4001;SDS011;2015;48.670;9.060;2023-08-06T08:17:29;1.00;;;0.90;;
4001;SDS011;2015;48.670;9.060;2023-08-06T08:20:01;0.80;;;0.80;;
4001;SDS011;2015;48.670;9.060;2023-08-06T08:22:34;0.90;;;0.80;;
4001;SDS011;2015;48.670;9.060;2023-08-06T08:25:06;1.20;;;0.70;;
4001;SDS011;2015;48.670;9.060;2023-08-06T08:27:37;1.10;;;0.90;;
4001;SDS011;2015;48.670;9.060;2023-08-06T08:30:09;1.10;;;1.00;;
4001;SDS011;2015;48.670;9.060;2023-08-06T08:32:41;1.70;;;1.60;;
4001;SDS011;2015;48.670;9.060;2023-08-06T08:35:13;0.90;;;0.80;;
4001;SDS011;2015;48.670;9.060;2023-08-06T08:37:45;0.80;;;0.80;;
4001;SDS011;2015;48.670;9.060;2023-08-06T08:40:16;1.40;;;0.50;;
4001;SDS011;2015;48.670;9.060;2023-08-06T08:42:48;0.80;;;0.80;;
4001;SDS011;2015;48.670;9.060;2023-08-06T08:45:20;0.97;;;0.87;;
4001;SDS011;2015;48.670;9.060;2023-08-06T08:47:57;1.00;;;0.90;;
4001;SDS011;2015;48.670;9.060;2023-08-06T08:50:29;1.10;;;0.80;;
4001;SDS011;2015;48.670;9.060;2023-08-06T08:53:00;2.10;;;1.13;;
4001;SDS011;2015;48.670;9.060;2023-08-06T08:55:32;0.80;;;0.80;;
4001;SDS011;2015;48.670;9.060;2023-08-06T08:58:04;0.80;;;0.80;;
4001;SDS011;2015;48.670;9.060;2023-08-06T09:00:36;0.80;;;0.80;;
4001;SDS011;2015;48.670;9.060;2023-08-06T09:03:08;1.00;;;0.80;;
4001;SDS011;2015;48.670;9.060;2023-08-06T09:05:41;3.30;;;0.80;;
4001;SDS011;2015;48.670;9.060;2023-08-06T09:08:17;0.93;;;0.77;;
4001;SDS011;2015;48.670;9.060;2023-08-06T09:10:50;0.80;;;0.80;;
4001;SDS011;2015;48.670;9.060;2023-08-06T09:13:23;0.97;;;0.90;;
4001;SDS011;2015;48.670;9.060;2023-08-06T09:15:55;0.80;;;0.70;;
4001;SDS011;2015;48.670;9.060;2023-08-06T09:18:27;0.80;;;0.80;;
4001;SDS011;2015;48.670;9.060;2023-08-06T09:21:00;1.00;;;0.70;;
4001;SDS011;2015;48.670;9.060;2023-08-06T09:23:32;0.90;;;0.80;;
4001;SDS011;2015;48.670;9.060;2023-08-06T09:26:04;1.37;;;0.70;;
4001;SDS011;2015;48.670;9.060;2023-08-06T09:28:39;0.80;;;0.63;;
4001;SDS011;2015;48.670;9.060;2023-08-06T09:31:13;0.80;;;0.80;;
4001;SDS011;2015;48.670;9.060;2023-08-06T09:33:44;0.80;;;0.70;;
4001;SDS011;2015;48.670;9.060;2023-08-06T09:36:16;0.90;;;0.80;;
4001;SDS011;2015;48.670;9.060;2023-08-06T09:38:49;0.80;;;0.60;;
4001;SDS011;2015;48.670;9.060;2023-08-06T09:41:26;1.20;;;1.10;;
4001;SDS011;2015;48.670;9.060;2023-08-06T09:43:59;0.97;;;0.87;;
4001;SDS011;2015;48.670;9.060;2023-08-06T09:46:32;1.73;;;0.80;;
4001;SDS011;2015;48.670;9.060;2023-08-06T09:49:04;1.00;;;0.90;;
4001;SDS011;2015;48.670;9.060;2023-08-06T09:51:39;2.50;;;0.90;;
4001;SDS011;2015;48.670;9.060;2023-08-06T09:54:12;0.90;;;0.80;;
4001;SDS011;2015;48.670;9.060;2023-08-06T09:56:57;0.70;;;0.60;;
4001;SDS011;2015;48.670;9.060;2023-08-06T09:59:29;3.47;;;1.30;;
4001;SDS011;2015;48.670;9.060;2023-08-06T10:02:01;1.70;;;0.60;;
4001;SDS011;2015;48.670;9.060;2023-08-06T10:04:38;1.00;;;0.70;;
4001;SDS011;2015;48.670;9.060;2023-08-06T10:07:12;1.57;;;0.80;;
4001;SDS011;2015;48.670;9.060;2023-08-06T10:09:44;1.53;;;0.70;;
4001;SDS011;2015;48.670;9.060;2023-08-06T10:12:15;0.87;;;0.87;;
4001;SDS011;2015;48.670;9.060;2023-08-06T10:14:49;4.50;;;1.20;;
4001;SDS011;2015;48.670;9.060;2023-08-06T10:17:22;0.82;;;0.60;;
4001;SDS011;2015;48.670;9.060;2023-08-06T10:20:07;0.80;;;0.80;;
4001;SDS011;2015;48.670;9.060;2023-08-06T10:22:43;1.00;;;0.90;;
4001;SDS011;2015;48.670;9.060;2023-08-06T10:25:16;1.10;;;0.90;;
4001;SDS011;2015;48.670;9.060;2023-08-06T10:30:27;0.80;;;0.73;;
4001;SDS011;2015;48.670;9.060;2023-08-06T10:33:01;1.77;;;1.10;;
4001;SDS011;2015;48.670;9.060;2023-08-06T10:38:12;1.20;;;1.10;;
4001;SDS011;2015;48.670;9.060;2023-08-06T10:43:29;1.80;;;0.70;;
4001;SDS011;2015;48.670;9.060;2023-08-06T10:46:09;1.10;;;1.00;;
4001;SDS011;2015;48.670;9.060;2023-08-06T10:48:43;2.40;;;0.60;;
4001;SDS011;2015;48.670;9.060;2023-08-06T10:51:17;0.97;;;0.87;;
4001;SDS011;2015;48.670;9.060;2023-08-06T10:53:48;1.00;;;0.90;;
4001;SDS011;2015;48.670;9.060;2023-08-06T10:56:22;0.80;;;0.80;;
4001;SDS011;2015;48.670;9.060;2023-08-06T10:58:54;1.00;;;0.80;;
4001;SDS011;2015;48.670;9.060;2023-08-06T11:01:31;4.17;;;1.10;;
4001;SDS011;2015;48.670;9.060;2023-08-06T11:04:05;0.90;;;0.80;;
4001;SDS011;2015;48.670;9.060;2023-08-06T11:06:36;0.90;;;0.50;;
4001;SDS011;2015;48.670;9.060;2023-08-06T11:09:08;1.27;;;1.00;;
4001;SDS011;2015;48.670;9.060;2023-08-06T11:11:40;0.80;;;0.80;;
4001;SDS011;2015;48.670;9.060;2023-08-06T11:14:17;0.97;;;0.90;;
4001;SDS011;2015;48.670;9.060;2023-08-06T11:16:49;0.80;;;0.80;;
4001;SDS011;2015;48.670;9.060;2023-08-06T11:19:22;1.60;;;1.00;;
4001;SDS011;2015;48.670;9.060;2023-08-06T11:21:54;0.80;;;0.80;;
4001;SDS011;2015;48.670;9.060;2023-08-06T11:24:27;1.30;;;1.20;;
4001;SDS011;2015;48.670;9.060;2023-08-06T11:26:59;1.10;;;1.00;;
4001;SDS011;2015;48.670;9.060;2023-08-06T11:29:30;1.00;;;0.90;;
4001;SDS011;2015;48.670;9.060;2023-08-06T11:32:09;1.50;;;1.40;;
4001;SDS011;2015;48.670;9.060;2023-08-06T11:34:41;1.10;;;1.00;;
4001;SDS011;2015;48.670;9.060;2023-08-06T11:37:14;1.10;;;1.00;;
4001;SDS011;2015;48.670;9.060;2023-08-06T11:39:46;1.10;;;1.00;;
4001;SDS011;2015;48.670;9.060;2023-08-06T11:42:21;1.20;;;1.10;;
4001;SDS011;2015;48.670;9.060;2023-08-06T11:44:56;1.10;;;1.00;;
4001;SDS011;2015;48.670;9.060;2023-08-06T11:47:28;1.00;;;0.90;;
4001;SDS011;2015;48.670;9.060;2023-08-06T11:49:59;1.03;;;0.93;;
4001;SDS011;2015;48.670;9.060;2023-08-06T11:52:31;1.93;;;1.10;;
4001;SDS011;2015;48.670;9.060;2023-08-06T11:55:07;1.30;;;1.20;;
4001;SDS011;2015;48.670;9.060;2023-08-06T11:57:44;1.10;;;1.00;;
4001;SDS011;2015;48.670;9.060;2023-08-06T12:00:17;4.17;;;0.93;;
4001;SDS011;2015;48.670;9.060;2023-08-06T12:02:51;1.10;;;0.90;;
4001;SDS011;2015;48.670;9.060;2023-08-06T12:05:28;1.20;;;1.10;;
4001;SDS011;2015;48.670;9.060;2023-08-06T12:08:02;0.90;;;0.80;;
4001;SDS011;2015;48.670;9.060;2023-08-06T12:10:34;1.10;;;0.70;;
4001;SDS011;2015;48.670;9.060;2023-08-06T12:13:06;1.30;;;1.20;;
4001;SDS011;2015;48.670;9.060;2023-08-06T12:15:38;1.60;;;1.20;;
4001;SDS011;2015;48.670;9.060;2023-08-06T12:18:09;1.13;;;1.03;;
4001;SDS011;2015;48.670;9.060;2023-08-06T12:20:41;1.30;;;1.20;;
4001;SDS011;2015;48.670;9.060;2023-08-06T12:23:13;1.40;;;1.30;;
4001;SDS011;2015;48.670;9.060;2023-08-06T12:25:46;1.20;;;1.10;;
4001;SDS011;2015;48.670;9.060;2023-08-06T12:28:18;1.30;;;1.17;;
4001;SDS011;2015;48.670;9.060;2023-08-06T12:30:53;1.23;;;1.13;;
4001;SDS011;2015;48.670;9.060;2023-08-06T12:33:26;1.10;;;1.00;;
4001;SDS011;2015;48.670;9.060;2023-08-06T12:35:58;1.37;;;1.27;;
4001;SDS011;2015;48.670;9.060;2023-08-06T12:38:30;1.70;;;1.30;;
4001;SDS011;2015;48.670;9.060;2023-08-06T12:41:04;1.57;;;1.47;;
4001;SDS011;2015;48.670;9.060;2023-08-06T12:43:36;1.43;;;1.33;;
4001;SDS011;2015;48.670;9.060;2023-08-06T12:46:08;1.50;;;1.40;;
4001;SDS011;2015;48.670;9.060;2023-08-06T12:48:41;1.40;;;1.30;;
4001;SDS011;2015;48.670;9.060;2023-08-06T12:51:13;3.73;;;1.60;;
4001;SDS011;2015;48.670;9.060;2023-08-06T12:53:44;1.43;;;1.33;;
4001;SDS011;2015;48.670;9.060;2023-08-06T12:56:16;1.30;;;1.20;;
4001;SDS011;2015;48.670;9.060;2023-08-06T12:58:48;1.37;;;1.27;;
4001;SDS011;2015;48.670;9.060;2023-08-06T13:01:19;1.20;;;1.10;;
4001;SDS011;2015;48.670;9.060;2023-08-06T13:03:51;1.40;;;1.30;;
4001;SDS011;2015;48.670;9.060;2023-08-06T13:06:37;1.30;;;1.20;;
4001;SDS011;2015;48.670;9.060;2023-08-06T13:09:11;1.23;;;1.13;;
4001;SDS011;2015;48.670;9.060;2023-08-06T13:11:43;1.53;;;1.43;;
4001;SDS011;2015;48.670;9.060;2023-08-06T13:14:17;1.92;;;1.02;;
4001;SDS011;2015;48.670;9.060;2023-08-06T13:16:49;1.50;;;1.40;;
4001;SDS011;2015;48.670;9.060;2023-08-06T13:19:21;1.53;;;1.43;;
4001;SDS011;2015;48.670;9.060;2023-08-06T13:22:04;1.63;;;1.53;;
4001;SDS011;2015;48.670;9.060;2023-08-06T13:24:39;1.57;;;1.47;;
4001;SDS011;2015;48.670;9.060;2023-08-06T13:27:11;1.80;;;1.70;;
4001;SDS011;2015;48.670;9.060;2023-08-06T13:29:43;1.40;;;1.00;;
4001;SDS011;2015;48.670;9.060;2023-08-06T13:32:14;1.80;;;1.70;;
4001;SDS011;2015;48.670;9.060;2023-08-06T13:34:46;2.30;;;1.53;;
4001;SDS011;2015;48.670;9.060;2023-08-06T13:37:18;1.27;;;1.17;;
4001;SDS011;2015;48.670;9.060;2023-08-06T13:39:49;1.23;;;1.13;;
4001;SDS011;2015;48.670;9.060;2023-08-06T13:42:21;1.93;;;1.30;;
4001;SDS011;2015;48.670;9.060;2023-08-06T13:44:53;1.20;;;1.10;;
4001;SDS011;2015;48.670;9.060;2023-08-06T13:47:30;1.50;;;1.10;;
4001;SDS011;2015;48.670;9.060;2023-08-06T13:50:02;2.20;;;1.63;;
4001;SDS011;2015;48.670;9.060;2023-08-06T13:52:34;1.40;;;1.30;;
4001;SDS011;2015;48.670;9.060;2023-08-06T13:55:07;1.30;;;1.20;;
4001;SDS011;2015;48.670;9.060;2023-08-06T13:57:39;1.40;;;1.30;;
4001;SDS011;2015;48.670;9.060;2023-08-06T14:00:11;1.50;;;1.40;;
4001;SDS011;2015;48.670;9.060;2023-08-06T14:02:43;1.77;;;1.67;;
4001;SDS011;2015;48.670;9.060;2023-08-06T14:05:17;2.60;;;1.60;;
4001;SDS011;2015;48.670;9.060;2023-08-06T14:07:49;1.77;;;1.67;;
4001;SDS011;2015;48.670;9.060;2023-08-06T14:10:21;3.63;;;1.50;;
4001;SDS011;2015;48.670;9.060;2023-08-06T14:12:53;3.00;;;1.40;;
4001;SDS011;2015;48.670;9.060;2023-08-06T14:15:40;1.50;;;1.40;;
4001;SDS011;2015;48.670;9.060;2023-08-06T14:18:15;1.45;;;1.30;;
4001;SDS011;2015;48.670;9.060;2023-08-06T14:20:47;1.60;;;1.50;;
4001;SDS011;2015;48.670;9.060;2023-08-06T14:23:19;2.20;;;2.10;;
4001;SDS011;2015;48.670;9.060;2023-08-06T14:25:51;1.70;;;1.60;;
4001;SDS011;2015;48.670;9.060;2023-08-06T14:28:22;1.30;;;1.20;;
4001;SDS011;2015;48.670;9.060;2023-08-06T14:30:54;3.00;;;2.70;;
4001;SDS011;2015;48.670;9.060;2023-08-06T14:33:28;1.47;;;1.37;;
4001;SDS011;2015;48.670;9.060;2023-08-06T14:36:00;1.50;;;1.40;;
4001;SDS011;2015;48.670;9.060;2023-08-06T14:38:32;1.40;;;1.30;;
4001;SDS011;2015;48.670;9.060;2023-08-06T14:41:16;1.50;;;1.40;;
4001;SDS011;2015;48.670;9.060;2023-08-06T14:43:48;2.33;;;1.80;;
4001;SDS011;2015;48.670;9.060;2023-08-06T14:46:20;2.40;;;1.87;;
4001;SDS011;2015;48.670;9.060;2023-08-06T14:48:51;1.50;;;1.40;;
4001;SDS011;2015;48.670;9.060;2023-08-06T14:51:23;1.87;;;1.10;;
4001;SDS011;2015;48.670;9.060;2023-08-06T14:53:55;1.30;;;1.20;;
4001;SDS011;2015;48.670;9.060;2023-08-06T14:56:27;1.20;;;1.10;;
4001;SDS011;2015;48.670;9.060;2023-08-06T14:58:59;1.40;;;1.30;;
4001;SDS011;2015;48.670;9.060;2023-08-06T15:01:30;2.80;;;1.23;;
4001;SDS011;2015;48.670;9.060;2023-08-06T15:04:02;2.13;;;1.57;;
4001;SDS011;2015;48.670;9.060;2023-08-06T15:06:34;1.10;;;0.90;;
4001;SDS011;2015;48.670;9.060;2023-08-06T15:09:07;1.63;;;1.53;;
4001;SDS011;2015;48.670;9.060;2023-08-06T15:11:38;1.70;;;1.60;;
4001;SDS011;2015;48.670;9.060;2023-08-06T15:14:10;1.40;;;1.30;;
4001;SDS011;2015;48.670;9.060;2023-08-06T15:16:42;2.50;;;1.20;;
4001;SDS011;2015;48.670;9.060;2023-08-06T15:19:14;1.40;;;1.30;;
4001;SDS011;2015;48.670;9.060;2023-08-06T15:21:46;1.42;;;1.33;;
4001;SDS011;2015;48.670;9.060;2023-08-06T15:24:17;1.70;;;1.60;;
4001;SDS011;2015;48.670;9.060;2023-08-06T15:26:49;1.53;;;1.43;;
4001;SDS011;2015;48.670;9.060;2023-08-06T15:29:21;1.70;;;1.60;;
4001;SDS011;2015;48.670;9.060;2023-08-06T15:31:53;1.30;;;1.20;;
4001;SDS011;2015;48.670;9.060;2023-08-06T15:34:24;1.73;;;1.40;;
4001;SDS011;2015;48.670;9.060;2023-08-06T15:36:56;1.33;;;1.20;;
4001;SDS011;2015;48.670;9.060;2023-08-06T15:39:27;1.60;;;1.37;;
4001;SDS011;2015;48.670;9.060;2023-08-06T15:41:59;1.40;;;1.30;;
4001;SDS011;2015;48.670;9.060;2023-08-06T15:44:31;3.43;;;1.87;;
4001;SDS011;2015;48.670;9.060;2023-08-06T15:47:03;1.70;;;1.60;;
4001;SDS011;2015;48.670;9.060;2023-08-06T15:49:35;1.50;;;1.40;;
4001;SDS011;2015;48.670;9.060;2023-08-06T15:52:07;3.40;;;1.80;;
4001;SDS011;2015;48.670;9.060;2023-08-06T15:54:38;2.20;;;1.10;;
4001;SDS011;2015;48.670;9.060;2023-08-06T15:57:10;1.50;;;1.40;;
4001;SDS011;2015;48.670;9.060;2023-08-06T15:59:42;1.47;;;1.30;;